sensor_id;sensor_type;location;lat;lon;timestamp;pressure;altitude;pressure_sealevel;temperature;humidity
6032;BME280;3044;43.232;27.972;2023-10-08T00:02:23;45070.00;;;-143.84;36.17
6032;BME280;3044;43.232;27.972;2023-10-08T00:04:52;45092.88;;;-143.84;36.33
6032;BME280;3044;43.232;27.972;2023-10-08T00:07:20;45049.06;;;-143.84;36.23
6032;BME280;3044;43.232;27.972;2023-10-08T00:09:50;45052.88;;;-143.84;36.32
6032;BME280;3044;43.232;27.972;2023-10-08T00:12:18;45049.06;;;-143.84;36.30
6032;BME280;3044;43.232;27.972;2023-10-08T00:14:48;45090.97;;;-143.84;36.45
6032;BME280;3044;43.232;27.972;2023-10-08T00:17:18;45060.50;;;-143.84;36.45
6032;BME280;3044;43.232;27.972;2023-10-08T00:19:45;45083.34;;;-143.84;36.57
6032;BME280;3044;43.232;27.972;2023-10-08T00:22:18;45056.69;;;-143.84;36.53
6032;BME280;3044;43.232;27.972;2023-10-08T00:24:45;45071.91;;;-143.84;36.51
6032;BME280;3044;43.232;27.972;2023-10-08T00:27:15;45083.34;;;-143.84;36.67
6032;BME280;3044;43.232;27.972;2023-10-08T00:29:43;45066.22;;;-143.84;36.58
6032;BME280;3044;43.232;27.972;2023-10-08T00:32:12;45079.53;;;-143.84;36.89
6032;BME280;3044;43.232;27.972;2023-10-08T00:34:39;45062.41;;;-143.84;36.64
6032;BME280;3044;43.232;27.972;2023-10-08T00:37:09;45083.34;;;-143.84;36.66
6032;BME280;3044;43.232;27.972;2023-10-08T00:39:39;45081.44;;;-143.84;36.77
6032;BME280;3044;43.232;27.972;2023-10-08T00:42:07;45077.63;;;-143.84;36.77
6032;BME280;3044;43.232;27.972;2023-10-08T00:44:35;45043.34;;;-143.84;36.73
6032;BME280;3044;43.232;27.972;2023-10-08T00:47:15;45075.72;;;-143.84;36.96
6032;BME280;3044;43.232;27.972;2023-10-08T00:49:51;45071.91;;;-143.84;36.64
6032;BME280;3044;43.232;27.972;2023-10-08T00:52:31;45066.22;;;-143.84;36.96
6032;BME280;3044;43.232;27.972;2023-10-08T00:55:08;45066.22;;;-143.84;37.24
6032;BME280;3044;43.232;27.972;2023-10-08T00:57:41;45047.16;;;-143.84;37.29
6032;BME280;3044;43.232;27.972;2023-10-08T01:00:13;45066.22;;;-143.84;37.47
6032;BME280;3044;43.232;27.972;2023-10-08T01:02:48;45070.00;;;-143.84;37.43
6032;BME280;3044;43.232;27.972;2023-10-08T01:05:25;45073.81;;;-143.84;37.45
6032;BME280;3044;43.232;27.972;2023-10-08T01:08:08;45085.25;;;-143.84;37.61
6032;BME280;3044;43.232;27.972;2023-10-08T01:10:38;45081.44;;;-143.84;37.72
6032;BME280;3044;43.232;27.972;2023-10-08T01:13:06;45077.63;;;-143.84;37.61
6032;BME280;3044;43.232;27.972;2023-10-08T01:15:41;45070.00;;;-143.84;37.70
6032;BME280;3044;43.232;27.972;2023-10-08T01:18:12;45075.72;;;-143.84;38.17
6032;BME280;3044;43.232;27.972;2023-10-08T01:20:43;45085.25;;;-143.84;38.15
6032;BME280;3044;43.232;27.972;2023-10-08T01:23:19;45090.97;;;-143.84;38.07
6032;BME280;3044;43.232;27.972;2023-10-08T01:25:49;45094.78;;;-143.84;38.24
6032;BME280;3044;43.232;27.972;2023-10-08T01:28:18;45083.34;;;-143.84;38.40
6032;BME280;3044;43.232;27.972;2023-10-08T01:30:51;45073.81;;;-143.84;38.44
6032;BME280;3044;43.232;27.972;2023-10-08T01:33:20;45096.66;;;-143.84;38.26
6032;BME280;3044;43.232;27.972;2023-10-08T01:35:48;45058.59;;;-143.84;38.48
6032;BME280;3044;43.232;27.972;2023-10-08T01:38:15;45089.06;;;-143.84;38.63
6032;BME280;3044;43.232;27.972;2023-10-08T01:40:50;45075.72;;;-143.84;38.98
6032;BME280;3044;43.232;27.972;2023-10-08T01:43:17;45077.63;;;-143.84;38.61
6032;BME280;3044;43.232;27.972;2023-10-08T01:45:46;45079.53;;;-143.84;38.97
6032;BME280;3044;43.232;27.972;2023-10-08T01:48:16;45081.44;;;-143.84;38.72
6032;BME280;3044;43.232;27.972;2023-10-08T01:50:46;45068.13;;;-143.84;38.84
6032;BME280;3044;43.232;27.972;2023-10-08T01:53:13;45081.44;;;-143.84;38.90
6032;BME280;3044;43.232;27.972;2023-10-08T01:55:42;45071.91;;;-143.84;38.94
6032;BME280;3044;43.232;27.972;2023-10-08T01:58:21;45049.06;;;-143.84;39.33
6032;BME280;3044;43.232;27.972;2023-10-08T02:00:48;45075.72;;;-143.84;39.27
6032;BME280;3044;43.232;27.972;2023-10-08T02:03:17;45071.91;;;-143.84;39.21
6032;BME280;3044;43.232;27.972;2023-10-08T02:05:46;45071.91;;;-143.84;39.38
6032;BME280;3044;43.232;27.972;2023-10-08T02:08:14;45081.44;;;-143.84;39.47
6032;BME280;3044;43.232;27.972;2023-10-08T02:10:43;45052.88;;;-143.84;39.45
6032;BME280;3044;43.232;27.972;2023-10-08T02:13:13;45094.78;;;-143.84;39.62
6032;BME280;3044;43.232;27.972;2023-10-08T02:15:43;45098.56;;;-143.84;39.66
6032;BME280;3044;43.232;27.972;2023-10-08T02:18:11;45071.91;;;-143.84;39.69
6032;BME280;3044;43.232;27.972;2023-10-08T02:20:39;45089.06;;;-143.84;39.56
6032;BME280;3044;43.232;27.972;2023-10-08T02:23:07;45068.13;;;-143.84;39.48
6032;BME280;3044;43.232;27.972;2023-10-08T02:25:34;45079.53;;;-143.84;39.34
6032;BME280;3044;43.232;27.972;2023-10-08T02:28:02;45068.13;;;-143.84;39.43
6032;BME280;3044;43.232;27.972;2023-10-08T02:30:29;45075.72;;;-143.84;39.26
6032;BME280;3044;43.232;27.972;2023-10-08T02:32:58;45102.38;;;-143.84;39.09
6032;BME280;3044;43.232;27.972;2023-10-08T02:35:25;45113.81;;;-143.84;39.27
6032;BME280;3044;43.232;27.972;2023-10-08T02:37:52;45071.91;;;-143.84;39.26
6032;BME280;3044;43.232;27.972;2023-10-08T02:40:21;45089.06;;;-143.84;39.24
6032;BME280;3044;43.232;27.972;2023-10-08T02:42:53;45075.72;;;-143.84;39.54
6032;BME280;3044;43.232;27.972;2023-10-08T02:45:25;45096.66;;;-143.84;39.40
6032;BME280;3044;43.232;27.972;2023-10-08T02:47:52;45108.09;;;-143.84;39.61
6032;BME280;3044;43.232;27.972;2023-10-08T02:50:22;45062.41;;;-143.84;39.84
6032;BME280;3044;43.232;27.972;2023-10-08T02:52:52;45075.72;;;-143.84;39.66
6032;BME280;3044;43.232;27.972;2023-10-08T02:55:19;45102.38;;;-143.84;39.64
6032;BME280;3044;43.232;27.972;2023-10-08T02:58:00;45071.91;;;-143.84;39.90
6032;BME280;3044;43.232;27.972;2023-10-08T03:00:28;45089.06;;;-143.84;39.97
6032;BME280;3044;43.232;27.972;2023-10-08T03:02:56;45073.81;;;-143.84;39.83
6032;BME280;3044;43.232;27.972;2023-10-08T03:05:28;45064.31;;;-143.84;40.01
6032;BME280;3044;43.232;27.972;2023-10-08T03:08:01;45050.97;;;-143.84;39.90
6032;BME280;3044;43.232;27.972;2023-10-08T03:10:28;45102.38;;;-143.84;40.09
6032;BME280;3044;43.232;27.972;2023-10-08T03:12:59;45096.66;;;-143.84;40.04
6032;BME280;3044;43.232;27.972;2023-10-08T03:15:31;45077.63;;;-143.84;40.18
6032;BME280;3044;43.232;27.972;2023-10-08T03:18:05;45081.44;;;-143.84;40.21
6032;BME280;3044;43.232;27.972;2023-10-08T03:20:37;45098.56;;;-143.84;40.22
6032;BME280;3044;43.232;27.972;2023-10-08T03:23:08;45085.25;;;-143.84;40.26
6032;BME280;3044;43.232;27.972;2023-10-08T03:25:51;45075.72;;;-143.84;40.25
6032;BME280;3044;43.232;27.972;2023-10-08T03:28:22;45075.72;;;-143.84;40.35
6032;BME280;3044;43.232;27.972;2023-10-08T03:30:51;45077.63;;;-143.84;40.21
6032;BME280;3044;43.232;27.972;2023-10-08T03:33:28;45077.63;;;-143.84;40.22
6032;BME280;3044;43.232;27.972;2023-10-08T03:36:01;45071.91;;;-143.84;40.26
6032;BME280;3044;43.232;27.972;2023-10-08T03:38:36;45085.25;;;-143.84;40.12
6032;BME280;3044;43.232;27.972;2023-10-08T03:41:17;45089.06;;;-143.84;40.14
6032;BME280;3044;43.232;27.972;2023-10-08T03:43:46;45083.34;;;-143.84;40.14
6032;BME280;3044;43.232;27.972;2023-10-08T03:46:23;45073.81;;;-143.84;40.49
6032;BME280;3044;43.232;27.972;2023-10-08T03:48:52;45066.22;;;-143.84;40.34
6032;BME280;3044;43.232;27.972;2023-10-08T03:51:24;45083.34;;;-143.84;40.22
6032;BME280;3044;43.232;27.972;2023-10-08T03:53:53;45047.16;;;-143.84;40.16
6032;BME280;3044;43.232;27.972;2023-10-08T03:56:41;45081.44;;;-143.84;40.28
6032;BME280;3044;43.232;27.972;2023-10-08T03:59:11;45104.28;;;-143.84;40.38
6032;BME280;3044;43.232;27.972;2023-10-08T04:01:41;45068.13;;;-143.84;40.21
6032;BME280;3044;43.232;27.972;2023-10-08T04:04:08;45083.34;;;-143.84;40.26
6032;BME280;3044;43.232;27.972;2023-10-08T04:06:42;45077.63;;;-143.84;40.31
6032;BME280;3044;43.232;27.972;2023-10-08T04:09:15;45083.34;;;-143.84;40.29
6032;BME280;3044;43.232;27.972;2023-10-08T04:11:51;45075.72;;;-143.84;40.51
6032;BME280;3044;43.232;27.972;2023-10-08T04:14:18;45077.63;;;-143.84;40.53
6032;BME280;3044;43.232;27.972;2023-10-08T04:16:46;45094.78;;;-143.84;40.53
6032;BME280;3044;43.232;27.972;2023-10-08T04:19:17;45073.81;;;-143.84;40.62
6032;BME280;3044;43.232;27.972;2023-10-08T04:21:46;45077.63;;;-143.84;40.47
6032;BME280;3044;43.232;27.972;2023-10-08T04:24:23;45070.00;;;-143.84;40.42
6032;BME280;3044;43.232;27.972;2023-10-08T04:27:03;45073.81;;;-143.84;40.16
6032;BME280;3044;43.232;27.972;2023-10-08T04:29:35;45079.53;;;-143.84;40.10
6032;BME280;3044;43.232;27.972;2023-10-08T04:32:03;45083.34;;;-143.84;40.01
6032;BME280;3044;43.232;27.972;2023-10-08T04:34:35;45096.66;;;-143.84;40.01
6032;BME280;3044;43.232;27.972;2023-10-08T04:37:04;45085.25;;;-143.84;40.19
6032;BME280;3044;43.232;27.972;2023-10-08T04:39:38;45052.88;;;-143.84;39.99
6032;BME280;3044;43.232;27.972;2023-10-08T04:42:08;45058.59;;;-143.84;39.99
6032;BME280;3044;43.232;27.972;2023-10-08T04:44:36;45090.97;;;-143.84;39.99
6032;BME280;3044;43.232;27.972;2023-10-08T04:47:06;45083.34;;;-143.84;39.92
6032;BME280;3044;43.232;27.972;2023-10-08T04:49:53;45083.34;;;-143.84;40.03
6032;BME280;3044;43.232;27.972;2023-10-08T04:52:23;45077.63;;;-143.84;39.79
6032;BME280;3044;43.232;27.972;2023-10-08T04:54:53;45075.72;;;-143.84;40.01
6032;BME280;3044;43.232;27.972;2023-10-08T04:57:22;45062.41;;;-143.84;39.89
6032;BME280;3044;43.232;27.972;2023-10-08T04:59:51;45085.25;;;-143.84;39.81
6032;BME280;3044;43.232;27.972;2023-10-08T05:02:23;45071.91;;;-143.84;39.77
6032;BME280;3044;43.232;27.972;2023-10-08T05:05:00;45079.53;;;-143.84;39.75
6032;BME280;3044;43.232;27.972;2023-10-08T05:07:49;45098.56;;;-143.84;39.77
6032;BME280;3044;43.232;27.972;2023-10-08T05:10:43;45073.81;;;-143.84;39.89
6032;BME280;3044;43.232;27.972;2023-10-08T05:13:41;45070.00;;;-143.84;39.65
6032;BME280;3044;43.232;27.972;2023-10-08T05:16:23;45056.69;;;-143.84;39.30
6032;BME280;3044;43.232;27.972;2023-10-08T05:19:08;45070.00;;;-143.84;39.51
6032;BME280;3044;43.232;27.972;2023-10-08T05:22:03;45068.13;;;-143.84;38.99
6032;BME280;3044;43.232;27.972;2023-10-08T05:24:45;45050.97;;;-143.84;38.76
6032;BME280;3044;43.232;27.972;2023-10-08T05:27:33;45075.72;;;-143.84;38.58
6032;BME280;3044;43.232;27.972;2023-10-08T05:30:19;45064.31;;;-143.84;38.38
6032;BME280;3044;43.232;27.972;2023-10-08T05:32:54;45062.41;;;-143.84;38.03
6032;BME280;3044;43.232;27.972;2023-10-08T05:35:39;45068.13;;;-143.84;38.16
6032;BME280;3044;43.232;27.972;2023-10-08T05:38:18;45049.06;;;-143.84;37.94
6032;BME280;3044;43.232;27.972;2023-10-08T05:41:05;45062.41;;;-143.84;37.82
6032;BME280;3044;43.232;27.972;2023-10-08T05:43:42;45056.69;;;-143.84;37.81
6032;BME280;3044;43.232;27.972;2023-10-08T05:46:21;45075.72;;;-143.84;37.69
6032;BME280;3044;43.232;27.972;2023-10-08T05:49:12;45054.78;;;-143.84;37.52
6032;BME280;3044;43.232;27.972;2023-10-08T05:52:02;45043.34;;;-143.84;37.38
6032;BME280;3044;43.232;27.972;2023-10-08T05:54:51;45056.69;;;-143.84;37.19
6032;BME280;3044;43.232;27.972;2023-10-08T05:57:36;45037.66;;;-143.84;37.61
6032;BME280;3044;43.232;27.972;2023-10-08T06:00:07;45049.06;;;-143.84;37.55
6032;BME280;3044;43.232;27.972;2023-10-08T06:02:51;45064.31;;;-143.84;37.51
6032;BME280;3044;43.232;27.972;2023-10-08T06:05:36;45050.97;;;-143.84;37.47
6032;BME280;3044;43.232;27.972;2023-10-08T06:08:11;45024.31;;;-143.84;37.44
6032;BME280;3044;43.232;27.972;2023-10-08T06:10:40;45052.88;;;-143.84;37.46
6032;BME280;3044;43.232;27.972;2023-10-08T06:13:14;45045.25;;;-143.84;37.24
6032;BME280;3044;43.232;27.972;2023-10-08T06:15:46;45066.22;;;-143.84;37.24
6032;BME280;3044;43.232;27.972;2023-10-08T06:18:14;45052.88;;;-143.84;37.10
6032;BME280;3044;43.232;27.972;2023-10-08T06:20:43;45028.13;;;-143.84;36.92
6032;BME280;3044;43.232;27.972;2023-10-08T06:23:10;45083.34;;;-143.84;36.58
6032;BME280;3044;43.232;27.972;2023-10-08T06:25:39;45039.53;;;-143.84;36.73
6032;BME280;3044;43.232;27.972;2023-10-08T06:28:15;45049.06;;;-143.84;36.73
6032;BME280;3044;43.232;27.972;2023-10-08T06:30:45;45030.03;;;-143.84;36.59
6032;BME280;3044;43.232;27.972;2023-10-08T06:33:12;45068.13;;;-143.84;36.65
6032;BME280;3044;43.232;27.972;2023-10-08T06:35:40;45050.97;;;-143.84;36.51
6032;BME280;3044;43.232;27.972;2023-10-08T06:38:10;45028.13;;;-143.84;36.47
6032;BME280;3044;43.232;27.972;2023-10-08T06:40:40;45049.06;;;-143.84;36.53
6032;BME280;3044;43.232;27.972;2023-10-08T06:43:08;45033.84;;;-143.84;36.22
6032;BME280;3044;43.232;27.972;2023-10-08T06:45:42;45050.97;;;-143.84;36.52
6032;BME280;3044;43.232;27.972;2023-10-08T06:48:10;45028.13;;;-143.84;35.99
6032;BME280;3044;43.232;27.972;2023-10-08T06:50:44;45052.88;;;-143.84;35.88
6032;BME280;3044;43.232;27.972;2023-10-08T06:53:12;45039.53;;;-143.84;36.00
6032;BME280;3044;43.232;27.972;2023-10-08T06:55:41;45035.75;;;-143.84;35.53
6032;BME280;3044;43.232;27.972;2023-10-08T06:58:09;45064.31;;;-143.84;35.02
6032;BME280;3044;43.232;27.972;2023-10-08T07:00:37;45024.31;;;-143.84;35.31
6032;BME280;3044;43.232;27.972;2023-10-08T07:03:07;45003.38;;;-143.84;35.08
6032;BME280;3044;43.232;27.972;2023-10-08T07:05:37;45020.50;;;-143.84;34.98
6032;BME280;3044;43.232;27.972;2023-10-08T07:08:10;45030.03;;;-143.84;34.91
6032;BME280;3044;43.232;27.972;2023-10-08T07:10:39;45018.59;;;-143.84;34.78
6032;BME280;3044;43.232;27.972;2023-10-08T07:13:08;45003.38;;;-143.84;34.36
6032;BME280;3044;43.232;27.972;2023-10-08T07:15:35;45033.84;;;-143.84;34.34
6032;BME280;3044;43.232;27.972;2023-10-08T07:18:07;45022.41;;;-143.84;34.23
6032;BME280;3044;43.232;27.972;2023-10-08T07:20:39;44990.03;;;-143.84;34.41
6032;BME280;3044;43.232;27.972;2023-10-08T07:23:08;45018.59;;;-143.84;33.98
6032;BME280;3044;43.232;27.972;2023-10-08T07:25:52;45014.78;;;-143.84;33.99
6032;BME280;3044;43.232;27.972;2023-10-08T07:28:23;45014.78;;;-143.84;33.76
6032;BME280;3044;43.232;27.972;2023-10-08T07:30:51;45020.50;;;-143.84;33.58
6032;BME280;3044;43.232;27.972;2023-10-08T07:33:19;45016.69;;;-143.84;33.73
6032;BME280;3044;43.232;27.972;2023-10-08T07:35:51;45028.13;;;-143.84;33.15
6032;BME280;3044;43.232;27.972;2023-10-08T07:38:30;45018.59;;;-143.84;33.39
6032;BME280;3044;43.232;27.972;2023-10-08T07:40:57;45010.97;;;-143.84;33.63
6032;BME280;3044;43.232;27.972;2023-10-08T07:43:26;45010.97;;;-143.84;33.07
6032;BME280;3044;43.232;27.972;2023-10-08T07:45:58;45026.22;;;-143.84;33.03
6032;BME280;3044;43.232;27.972;2023-10-08T07:48:27;45003.38;;;-143.84;33.05
6032;BME280;3044;43.232;27.972;2023-10-08T07:50:55;45026.22;;;-143.84;32.84
6032;BME280;3044;43.232;27.972;2023-10-08T07:53:23;45007.19;;;-143.84;32.16
6032;BME280;3044;43.232;27.972;2023-10-08T07:56:04;45018.59;;;-143.84;32.61
6032;BME280;3044;43.232;27.972;2023-10-08T07:58:32;44991.94;;;-143.84;32.65
6032;BME280;3044;43.232;27.972;2023-10-08T08:01:03;45020.50;;;-143.84;32.14
6032;BME280;3044;43.232;27.972;2023-10-08T08:03:33;44965.28;;;-143.84;31.72
6032;BME280;3044;43.232;27.972;2023-10-08T08:06:03;44986.22;;;-143.84;32.06
6032;BME280;3044;43.232;27.972;2023-10-08T08:08:32;44988.13;;;-143.84;32.23
6032;BME280;3044;43.232;27.972;2023-10-08T08:10:59;44974.81;;;-143.84;31.72
6032;BME280;3044;43.232;27.972;2023-10-08T08:13:31;44991.94;;;-143.84;32.05
6032;BME280;3044;43.232;27.972;2023-10-08T08:15:59;44982.41;;;-143.84;31.55
6032;BME280;3044;43.232;27.972;2023-10-08T08:18:37;44988.13;;;-143.84;31.08
6032;BME280;3044;43.232;27.972;2023-10-08T08:21:09;44974.81;;;-143.84;30.92
6032;BME280;3044;43.232;27.972;2023-10-08T08:23:40;44991.94;;;-143.84;30.89
6032;BME280;3044;43.232;27.972;2023-10-08T08:26:14;44982.41;;;-143.84;31.04
6032;BME280;3044;43.232;27.972;2023-10-08T08:28:53;44961.47;;;-143.84;31.02
6032;BME280;3044;43.232;27.972;2023-10-08T08:31:23;44974.81;;;-143.84;31.06
6032;BME280;3044;43.232;27.972;2023-10-08T08:33:52;44961.47;;;-143.84;30.51
6032;BME280;3044;43.232;27.972;2023-10-08T08:36:22;44931.00;;;-143.84;30.24
6032;BME280;3044;43.232;27.972;2023-10-08T08:38:50;44959.56;;;-143.84;29.61
6032;BME280;3044;43.232;27.972;2023-10-08T08:41:18;44969.09;;;-143.84;29.64
6032;BME280;3044;43.232;27.972;2023-10-08T08:43:51;44969.09;;;-143.84;29.96
6032;BME280;3044;43.232;27.972;2023-10-08T08:46:30;44963.38;;;-143.84;29.49
6032;BME280;3044;43.232;27.972;2023-10-08T08:49:02;44953.88;;;-143.84;29.29
6032;BME280;3044;43.232;27.972;2023-10-08T08:51:31;44951.97;;;-143.84;29.12
6032;BME280;3044;43.232;27.972;2023-10-08T08:53:58;44965.28;;;-143.84;28.99
6032;BME280;3044;43.232;27.972;2023-10-08T08:56:28;44980.53;;;-143.84;29.12
6032;BME280;3044;43.232;27.972;2023-10-08T08:58:58;44984.31;;;-143.84;29.56
6032;BME280;3044;43.232;27.972;2023-10-08T09:01:27;44961.47;;;-143.84;29.20
6032;BME280;3044;43.232;27.972;2023-10-08T09:04:01;44971.00;;;-143.84;29.46
6032;BME280;3044;43.232;27.972;2023-10-08T09:06:32;44961.47;;;-143.84;29.77
6032;BME280;3044;43.232;27.972;2023-10-08T09:08:59;44951.97;;;-143.84;29.92
6032;BME280;3044;43.232;27.972;2023-10-08T09:11:40;44948.16;;;-143.84;29.03
6032;BME280;3044;43.232;27.972;2023-10-08T09:14:08;44957.66;;;-143.84;29.60
6032;BME280;3044;43.232;27.972;2023-10-08T09:16:37;44971.00;;;-143.84;29.06
6032;BME280;3044;43.232;27.972;2023-10-08T09:19:06;44950.06;;;-143.84;28.66
6032;BME280;3044;43.232;27.972;2023-10-08T09:21:37;44957.66;;;-143.84;28.76
6032;BME280;3044;43.232;27.972;2023-10-08T09:24:05;44961.47;;;-143.84;29.94
6032;BME280;3044;43.232;27.972;2023-10-08T09:26:36;44938.63;;;-143.84;28.81
6032;BME280;3044;43.232;27.972;2023-10-08T09:29:05;44971.00;;;-143.84;28.46
6032;BME280;3044;43.232;27.972;2023-10-08T09:31:37;44936.72;;;-143.84;29.06
6032;BME280;3044;43.232;27.972;2023-10-08T09:34:06;44982.41;;;-143.84;28.99
6032;BME280;3044;43.232;27.972;2023-10-08T09:36:33;44946.25;;;-143.84;29.30
6032;BME280;3044;43.232;27.972;2023-10-08T09:39:01;44934.81;;;-143.84;29.36
6032;BME280;3044;43.232;27.972;2023-10-08T09:41:31;44957.66;;;-143.84;28.99
6032;BME280;3044;43.232;27.972;2023-10-08T09:43:58;44957.66;;;-143.84;28.90
6032;BME280;3044;43.232;27.972;2023-10-08T09:46:29;44957.66;;;-143.84;28.66
6032;BME280;3044;43.232;27.972;2023-10-08T09:48:59;44965.28;;;-143.84;28.94
6032;BME280;3044;43.232;27.972;2023-10-08T09:51:29;44961.47;;;-143.84;28.64
6032;BME280;3044;43.232;27.972;2023-10-08T09:54:05;44944.34;;;-143.84;29.36
6032;BME280;3044;43.232;27.972;2023-10-08T09:56:36;44925.31;;;-143.84;28.54
6032;BME280;3044;43.232;27.972;2023-10-08T09:59:05;44927.19;;;-143.84;28.96
6032;BME280;3044;43.232;27.972;2023-10-08T10:01:35;44923.41;;;-143.84;28.90
6032;BME280;3044;43.232;27.972;2023-10-08T10:04:06;44934.81;;;-143.84;28.62
6032;BME280;3044;43.232;27.972;2023-10-08T10:06:34;44948.16;;;-143.84;28.73
6032;BME280;3044;43.232;27.972;2023-10-08T10:09:04;44915.78;;;-143.84;28.90
6032;BME280;3044;43.232;27.972;2023-10-08T10:11:35;44950.06;;;-143.84;28.30
6032;BME280;3044;43.232;27.972;2023-10-08T10:14:03;44929.09;;;-143.84;28.99
6032;BME280;3044;43.232;27.972;2023-10-08T10:16:32;44911.97;;;-143.84;28.47
6032;BME280;3044;43.232;27.972;2023-10-08T10:19:04;44915.78;;;-143.84;28.39
6032;BME280;3044;43.232;27.972;2023-10-08T10:21:34;44908.16;;;-143.84;28.79
6032;BME280;3044;43.232;27.972;2023-10-08T10:24:01;44953.88;;;-143.84;28.05
6032;BME280;3044;43.232;27.972;2023-10-08T10:26:32;44927.19;;;-143.84;28.11
6032;BME280;3044;43.232;27.972;2023-10-08T10:29:21;44969.09;;;-143.84;28.28
6032;BME280;3044;43.232;27.972;2023-10-08T10:31:51;44944.34;;;-143.84;27.85
6032;BME280;3044;43.232;27.972;2023-10-08T10:34:21;44917.69;;;-143.84;28.25
6032;BME280;3044;43.232;27.972;2023-10-08T10:36:51;44919.59;;;-143.84;28.45
6032;BME280;3044;43.232;27.972;2023-10-08T10:39:34;44942.44;;;-143.84;28.10
6032;BME280;3044;43.232;27.972;2023-10-08T10:42:06;44938.63;;;-143.84;27.97
6032;BME280;3044;43.232;27.972;2023-10-08T10:44:46;44921.50;;;-143.84;28.10
6032;BME280;3044;43.232;27.972;2023-10-08T10:47:16;44932.91;;;-143.84;27.99
6032;BME280;3044;43.232;27.972;2023-10-08T10:50:04;44942.44;;;-143.84;27.85
6032;BME280;3044;43.232;27.972;2023-10-08T10:52:53;44934.81;;;-143.84;27.48
6032;BME280;3044;43.232;27.972;2023-10-08T10:55:19;44951.97;;;-143.84;27.56
6032;BME280;3044;43.232;27.972;2023-10-08T10:57:50;44929.09;;;-143.84;27.68
6032;BME280;3044;43.232;27.972;2023-10-08T11:00:31;44913.88;;;-143.84;27.63
6032;BME280;3044;43.232;27.972;2023-10-08T11:03:24;44942.44;;;-143.84;28.10
6032;BME280;3044;43.232;27.972;2023-10-08T11:05:55;44936.72;;;-143.84;28.01
6032;BME280;3044;43.232;27.972;2023-10-08T11:08:27;44929.09;;;-143.84;28.47
6032;BME280;3044;43.232;27.972;2023-10-08T11:11:00;44915.78;;;-143.84;28.25
6032;BME280;3044;43.232;27.972;2023-10-08T11:13:33;44921.50;;;-143.84;27.70
6032;BME280;3044;43.232;27.972;2023-10-08T11:16:05;44913.88;;;-143.84;27.71
6032;BME280;3044;43.232;27.972;2023-10-08T11:18:33;44904.34;;;-143.84;28.02
6032;BME280;3044;43.232;27.972;2023-10-08T11:21:07;44911.97;;;-143.84;28.24
6032;BME280;3044;43.232;27.972;2023-10-08T11:23:44;44898.66;;;-143.84;27.76
6032;BME280;3044;43.232;27.972;2023-10-08T11:26:18;44929.09;;;-143.84;28.25
6032;BME280;3044;43.232;27.972;2023-10-08T11:28:45;44921.50;;;-143.84;28.19
6032;BME280;3044;43.232;27.972;2023-10-08T11:31:14;44915.78;;;-143.84;28.08
6032;BME280;3044;43.232;27.972;2023-10-08T11:33:45;44929.09;;;-143.84;27.91
6032;BME280;3044;43.232;27.972;2023-10-08T11:36:20;44934.81;;;-143.84;28.48
6032;BME280;3044;43.232;27.972;2023-10-08T11:38:55;44908.16;;;-143.84;28.08
6032;BME280;3044;43.232;27.972;2023-10-08T11:41:27;44959.56;;;-143.84;28.15
6032;BME280;3044;43.232;27.972;2023-10-08T11:43:57;44921.50;;;-143.84;27.92
6032;BME280;3044;43.232;27.972;2023-10-08T11:46:26;44904.34;;;-143.84;28.28
6032;BME280;3044;43.232;27.972;2023-10-08T11:48:54;44925.31;;;-143.84;27.49
6032;BME280;3044;43.232;27.972;2023-10-08T11:51:24;44923.41;;;-143.84;28.10
6032;BME280;3044;43.232;27.972;2023-10-08T11:53:54;44923.41;;;-143.84;28.31
6032;BME280;3044;43.232;27.972;2023-10-08T11:56:22;44910.06;;;-143.84;27.84
6032;BME280;3044;43.232;27.972;2023-10-08T11:58:49;44921.50;;;-143.84;28.22
6032;BME280;3044;43.232;27.972;2023-10-08T12:01:18;44931.00;;;-143.84;28.48
6032;BME280;3044;43.232;27.972;2023-10-08T12:03:46;44931.00;;;-143.84;28.68
6032;BME280;3044;43.232;27.972;2023-10-08T12:06:15;44917.69;;;-143.84;28.87
6032;BME280;3044;43.232;27.972;2023-10-08T12:08:44;44915.78;;;-143.84;28.51
6032;BME280;3044;43.232;27.972;2023-10-08T12:11:14;44957.66;;;-143.84;28.58
6032;BME280;3044;43.232;27.972;2023-10-08T12:13:42;44942.44;;;-143.84;28.39
6032;BME280;3044;43.232;27.972;2023-10-08T12:16:13;44950.06;;;-143.84;28.84
6032;BME280;3044;43.232;27.972;2023-10-08T12:18:47;44957.66;;;-143.84;28.84
6032;BME280;3044;43.232;27.972;2023-10-08T12:21:19;44951.97;;;-143.84;29.14
6032;BME280;3044;43.232;27.972;2023-10-08T12:23:47;44908.16;;;-143.84;28.92
6032;BME280;3044;43.232;27.972;2023-10-08T12:26:17;44931.00;;;-143.84;28.99
6032;BME280;3044;43.232;27.972;2023-10-08T12:28:45;44919.59;;;-143.84;28.64
6032;BME280;3044;43.232;27.972;2023-10-08T12:31:14;44921.50;;;-143.84;28.76
6032;BME280;3044;43.232;27.972;2023-10-08T12:33:42;44917.69;;;-143.84;28.74
6032;BME280;3044;43.232;27.972;2023-10-08T12:36:11;44915.78;;;-143.84;28.75
6032;BME280;3044;43.232;27.972;2023-10-08T12:38:39;44929.09;;;-143.84;28.97
6032;BME280;3044;43.232;27.972;2023-10-08T12:41:08;44910.06;;;-143.84;28.93
6032;BME280;3044;43.232;27.972;2023-10-08T12:43:40;44950.06;;;-143.84;29.06
6032;BME280;3044;43.232;27.972;2023-10-08T12:46:11;44955.75;;;-143.84;29.36
6032;BME280;3044;43.232;27.972;2023-10-08T12:48:44;44934.81;;;-143.84;29.16
6032;BME280;3044;43.232;27.972;2023-10-08T12:51:14;44953.88;;;-143.84;29.19
6032;BME280;3044;43.232;27.972;2023-10-08T12:53:42;44927.19;;;-143.84;29.36
6032;BME280;3044;43.232;27.972;2023-10-08T12:56:16;44953.88;;;-143.84;29.50
6032;BME280;3044;43.232;27.972;2023-10-08T12:58:48;44925.31;;;-143.84;29.32
6032;BME280;3044;43.232;27.972;2023-10-08T13:01:16;44915.78;;;-143.84;29.57
6032;BME280;3044;43.232;27.972;2023-10-08T13:03:44;44940.53;;;-143.84;29.35
6032;BME280;3044;43.232;27.972;2023-10-08T13:06:15;44969.09;;;-143.84;29.44
6032;BME280;3044;43.232;27.972;2023-10-08T13:08:48;44953.88;;;-143.84;29.49
6032;BME280;3044;43.232;27.972;2023-10-08T13:11:18;44936.72;;;-143.84;29.39
6032;BME280;3044;43.232;27.972;2023-10-08T13:13:50;44915.78;;;-143.84;29.57
6032;BME280;3044;43.232;27.972;2023-10-08T13:16:18;44936.72;;;-143.84;29.47